Waterford, Michigan
Current Conditions -  °F | °C
As of 10:53 AM on Thursday 30 Oct 2014 (Local Time) from KPTK Reporting Station
Overcast Overcast  
Wind Chill: 45°   Ceiling: 3500
Heat Index: 45°   Visibility: 10mi
Dew Point: 33°   Wind: 0mph
Humidity: 63%   Direction: NA
Pressure: 30.12"   Gusts: NA
Location:  42.67°N, 83.39°W
Report Text: KPTK 301453Z 00000KT 10SM OVC035 07/01 A3012 RMK AO2 SLP205 T00720006 51005
Loading
Personal Weather Stations






























Interactive Weather Map
Tropical Storm Tracking
New forecast layout! Learn more

10-Day Weather Forecast

Advertisements
Track Severe Weather on mobile